Decoded Metar for KLCH (LAKE CHARLES in LA, USA) (IATA:LCH) | Meteo·Mobile Aviation Weather
aviador You're here:

KLCH Decoded Metar

LAKE CHARLES in LA, USA
Report Time2018-11-19 03:53:00
UTC Time2018-11-19 04:45:01
Flight Rules vfr VFR
WindCalm
Visibility9999 m
Phenomena:N/A
Clouds:Overcast 110 Hf
Expected CloudBase > 800 ft AGL from Temp-Dew spread
Ceiling11,000 ft
Temp16°C (ISA +1)
Dew Point14°C (88% RH)
QNH1021 hPa
Density Alt75 ft
Elevation13 ft
Report Wrong Elevation
Raw Report
KLCH 190353Z 00000KT 10SM OVC110 16/14 A3016 RMK AO2 SLP221
T01610139=

Extra information for KLCH:More info

Metar Taf Metar & Taf Last 4 Metars F.Rules Stats Wind Profile Meteogram Temp Stats Airport Information Weather charts Add Link Nearby VenuesMetar ALERT Operation Metar Decoded Social comments

AIRNAV info for KLCH